Time;durP1;ratioP1;P1;durP2;ratioP2;P2;SDS_P1;SDS_P2;PMS_P1;PMS_P2;Temp;Humidity;BMP_temperature;BMP_pressure;BME280_temperature;BME280_humidity;BME280_pressure;Samples;Min_cycle;Max_cycle;Signal;HPM_P1;HPM_P2
2024/01/24 00:01:20;;;;;;;8.33;7.47;;;;;;;;;;5074782;28;20673;-53
2024/01/24 00:03:46;;;;;;;10.67;8.30;;;;;;;;;;5075133;28;20195;-53
2024/01/24 00:06:11;;;;;;;9.10;8.30;;;;;;;;;;5074842;28;20663;-53
2024/01/24 00:08:37;;;;;;;8.17;7.47;;;;;;;;;;5074487;28;20191;-53
2024/01/24 00:11:04;;;;;;;9.07;8.13;;;;;;;;;;5074881;28;20605;-52
2024/01/24 00:13:30;;;;;;;9.73;7.77;;;;;;;;;;5074552;28;20758;-53
2024/01/24 00:15:57;;;;;;;9.00;8.10;;;;;;;;;;5074883;28;20199;-53
2024/01/24 00:18:23;;;;;;;8.30;7.60;;;;;;;;;;5074446;28;20590;-53
2024/01/24 00:20:50;;;;;;;8.97;7.80;;;;;;;;;;5074669;28;20211;-53
2024/01/24 00:23:16;;;;;;;8.53;7.77;;;;;;;;;;5074571;28;20546;-53
2024/01/24 00:25:42;;;;;;;9.10;8.20;;;;;;;;;;5074431;28;20281;-52
2024/01/24 00:28:08;;;;;;;8.20;7.37;;;;;;;;;;5074488;28;20227;-53
2024/01/24 00:30:34;;;;;;;8.93;8.03;;;;;;;;;;5074234;28;20627;-53
2024/01/24 00:33:04;;;;;;;8.67;7.87;;;;;;;;;;5074061;28;20203;-52
2024/01/24 00:35:30;;;;;;;9.23;8.33;;;;;;;;;;5074246;28;20549;-53
2024/01/24 00:37:56;;;;;;;9.93;8.20;;;;;;;;;;5074491;28;20200;-53
2024/01/24 00:40:22;;;;;;;9.53;7.87;;;;;;;;;;5074061;28;20320;-53
2024/01/24 00:42:48;;;;;;;9.17;8.13;;;;;;;;;;5074178;28;20199;-52
2024/01/24 00:45:14;;;;;;;8.87;8.03;;;;;;;;;;5073944;28;20220;-52
2024/01/24 00:47:40;;;;;;;9.40;8.50;;;;;;;;;;5074029;28;20935;-53
2024/01/24 00:50:08;;;;;;;9.57;8.67;;;;;;;;;;5074268;28;20291;-52
2024/01/24 00:52:34;;;;;;;9.70;8.80;;;;;;;;;;5073888;28;20211;-53
2024/01/24 00:55:00;;;;;;;9.13;8.23;;;;;;;;;;5074069;28;20191;-52
2024/01/24 00:57:26;;;;;;;9.27;8.40;;;;;;;;;;5073554;28;20195;-53
2024/01/24 00:59:52;;;;;;;8.90;8.10;;;;;;;;;;5073967;28;20213;-53
2024/01/24 01:02:19;;;;;;;8.77;7.97;;;;;;;;;;5072692;28;20199;-53
2024/01/24 01:04:45;;;;;;;11.77;8.60;;;;;;;;;;5073740;28;20230;-52
2024/01/24 01:07:12;;;;;;;9.60;8.50;;;;;;;;;;5073913;28;20202;-53
2024/01/24 01:09:38;;;;;;;9.20;8.30;;;;;;;;;;5073335;28;20233;-51
2024/01/24 01:12:04;;;;;;;9.47;8.57;;;;;;;;;;5073558;28;20195;-51
2024/01/24 01:14:30;;;;;;;9.27;8.20;;;;;;;;;;5073522;28;20203;-52
2024/01/24 01:16:56;;;;;;;8.70;7.83;;;;;;;;;;5073717;28;20225;-52
2024/01/24 01:19:22;;;;;;;9.97;7.53;;;;;;;;;;5073509;28;20196;-53
2024/01/24 01:21:48;;;;;;;8.97;8.07;;;;;;;;;;5073304;28;20268;-52
2024/01/24 01:24:15;;;;;;;8.33;7.63;;;;;;;;;;5073389;28;20279;-52
2024/01/24 01:26:41;;;;;;;9.50;8.70;;;;;;;;;;5073158;28;20231;-51
2024/01/24 01:29:07;;;;;;;9.67;8.67;;;;;;;;;;5071615;28;20203;-51
2024/01/24 01:31:33;;;;;;;9.90;8.93;;;;;;;;;;5071580;28;20195;-51
2024/01/24 01:34:00;;;;;;;12.43;10.10;;;;;;;;;;5073356;28;20219;-49
2024/01/24 01:36:26;;;;;;;10.03;8.97;;;;;;;;;;5073223;28;20210;-54
2024/01/24 01:38:52;;;;;;;12.30;9.30;;;;;;;;;;5073159;28;20192;-50
2024/01/24 01:41:20;;;;;;;11.33;9.40;;;;;;;;;;5073080;28;20306;-50
2024/01/24 01:43:46;;;;;;;10.93;9.93;;;;;;;;;;5073031;28;20295;-51
2024/01/24 01:46:17;;;;;;;12.33;10.27;;;;;;;;;;5073091;28;20306;-50
2024/01/24 01:48:43;;;;;;;11.40;9.67;;;;;;;;;;5073122;28;20229;-51
2024/01/24 01:51:10;;;;;;;11.77;10.57;;;;;;;;;;5073087;28;20739;-52
2024/01/24 01:53:38;;;;;;;11.50;10.30;;;;;;;;;;5072772;28;20435;-52
2024/01/24 01:56:05;;;;;;;12.83;10.23;;;;;;;;;;5072931;28;20214;-52
2024/01/24 01:58:32;;;;;;;11.17;10.17;;;;;;;;;;5072810;28;20249;-52
2024/01/24 02:00:58;;;;;;;11.93;10.50;;;;;;;;;;5072847;28;20673;-52
2024/01/24 02:03:24;;;;;;;13.93;10.60;;;;;;;;;;5072691;28;20199;-52
2024/01/24 02:05:50;;;;;;;13.57;10.23;;;;;;;;;;5072599;28;20273;-52
2024/01/24 02:08:16;;;;;;;16.57;12.03;;;;;;;;;;5072656;28;20191;-52
2024/01/24 02:10:44;;;;;;;12.73;10.40;;;;;;;;;;5072524;28;20636;-52
2024/01/24 02:13:11;;;;;;;12.67;10.33;;;;;;;;;;5072189;28;20231;-52
2024/01/24 02:15:38;;;;;;;15.60;10.70;;;;;;;;;;5072414;28;20199;-52
2024/01/24 02:18:05;;;;;;;12.00;10.67;;;;;;;;;;5072428;28;20227;-52
2024/01/24 02:20:32;;;;;;;15.73;10.33;;;;;;;;;;5072404;28;20199;-52
2024/01/24 02:22:58;;;;;;;15.33;10.70;;;;;;;;;;5072436;28;20701;-53
2024/01/24 02:25:26;;;;;;;13.70;10.47;;;;;;;;;;5072187;28;20577;-52
2024/01/24 02:27:52;;;;;;;12.17;9.97;;;;;;;;;;5072288;28;20230;-52
2024/01/24 02:30:17;;;;;;;10.57;9.57;;;;;;;;;;5072392;28;20196;-52
2024/01/24 02:32:44;;;;;;;10.30;8.40;;;;;;;;;;5072218;28;20199;-52
2024/01/24 02:35:10;;;;;;;8.90;7.90;;;;;;;;;;5072326;28;20188;-52
2024/01/24 02:37:35;;;;;;;8.90;8.10;;;;;;;;;;5072163;28;20195;-52
2024/01/24 02:40:02;;;;;;;8.83;7.80;;;;;;;;;;5072305;28;20662;-51
2024/01/24 02:42:29;;;;;;;8.57;7.57;;;;;;;;;;5072305;28;20195;-52
2024/01/24 02:44:55;;;;;;;9.60;7.53;;;;;;;;;;5072006;28;20203;-51
2024/01/24 02:47:22;;;;;;;10.07;6.53;;;;;;;;;;5072157;28;20206;-52
2024/01/24 02:49:48;;;;;;;9.97;7.17;;;;;;;;;;5072002;28;20207;-52
2024/01/24 02:52:14;;;;;;;8.20;6.40;;;;;;;;;;5072149;28;20199;-52
2024/01/24 02:54:41;;;;;;;8.80;6.23;;;;;;;;;;5071867;28;20598;-52
2024/01/24 02:57:07;;;;;;;9.80;6.43;;;;;;;;;;5072068;28;20538;-51
2024/01/24 02:59:34;;;;;;;8.50;5.67;;;;;;;;;;5072155;28;20290;-51
2024/01/24 03:02:00;;;;;;;9.33;5.63;;;;;;;;;;5071970;28;20578;-51
2024/01/24 03:04:27;;;;;;;10.30;5.87;;;;;;;;;;5071973;28;20697;-51
2024/01/24 03:06:55;;;;;;;7.70;5.10;;;;;;;;;;5071769;28;20219;-52
2024/01/24 03:09:22;;;;;;;7.60;4.73;;;;;;;;;;5071890;28;20203;-52
2024/01/24 03:11:48;;;;;;;8.13;4.97;;;;;;;;;;5071894;28;20203;-52
2024/01/24 03:14:14;;;;;;;7.00;4.50;;;;;;;;;;5071951;28;20740;-52
2024/01/24 03:16:41;;;;;;;4.67;4.00;;;;;;;;;;5071671;28;20201;-51
2024/01/24 03:19:08;;;;;;;6.03;3.80;;;;;;;;;;5071746;28;20561;-51
2024/01/24 03:21:34;;;;;;;4.03;3.43;;;;;;;;;;5071655;28;20234;-51
2024/01/24 03:24:00;;;;;;;6.30;3.97;;;;;;;;;;5071902;28;20238;-52
2024/01/24 03:26:26;;;;;;;5.23;3.70;;;;;;;;;;5074259;28;20225;-51
2024/01/24 03:28:52;;;;;;;5.50;3.10;;;;;;;;;;5075693;28;20207;-51
2024/01/24 03:31:18;;;;;;;4.30;3.30;;;;;;;;;;5075641;28;20195;-52
2024/01/24 03:33:46;;;;;;;3.67;3.33;;;;;;;;;;5075606;28;20191;-51
2024/01/24 03:36:12;;;;;;;4.40;3.40;;;;;;;;;;5075670;28;20594;-52
2024/01/24 03:38:38;;;;;;;6.57;3.30;;;;;;;;;;5075486;28;20199;-52
2024/01/24 03:41:04;;;;;;;5.03;3.60;;;;;;;;;;5075616;28;20253;-51
2024/01/24 03:43:30;;;;;;;4.13;3.37;;;;;;;;;;5075524;28;20195;-51
2024/01/24 03:45:56;;;;;;;5.93;3.70;;;;;;;;;;5075198;28;20227;-51
2024/01/24 03:48:23;;;;;;;5.23;3.07;;;;;;;;;;5075315;28;20741;-51
2024/01/24 03:50:50;;;;;;;2.87;2.50;;;;;;;;;;5075165;28;20674;-51
2024/01/24 03:53:16;;;;;;;3.87;3.07;;;;;;;;;;5065039;28;20222;-51
2024/01/24 03:55:42;;;;;;;3.37;2.70;;;;;;;;;;5061508;28;20598;-51
2024/01/24 03:58:08;;;;;;;3.40;2.57;;;;;;;;;;5061715;28;20207;-52
2024/01/24 04:00:34;;;;;;;2.50;2.30;;;;;;;;;;5063206;28;20290;-51
2024/01/24 04:03:00;;;;;;;2.67;2.27;;;;;;;;;;5061400;28;20203;-51
2024/01/24 04:05:26;;;;;;;2.80;2.20;;;;;;;;;;5061263;28;20289;-51
2024/01/24 04:07:53;;;;;;;3.20;2.00;;;;;;;;;;5061204;28;20314;-51
2024/01/24 04:10:19;;;;;;;4.73;2.63;;;;;;;;;;5062928;28;20203;-51
2024/01/24 04:12:45;;;;;;;2.00;1.90;;;;;;;;;;5061052;28;20284;-51
2024/01/24 04:15:11;;;;;;;1.80;1.20;;;;;;;;;;5062839;28;20203;-51
2024/01/24 04:17:37;;;;;;;1.10;1.10;;;;;;;;;;5062672;28;20211;-52
2024/01/24 04:20:03;;;;;;;1.73;1.50;;;;;;;;;;5062218;28;20739;-51
2024/01/24 04:22:29;;;;;;;1.47;0.90;;;;;;;;;;5061098;28;20204;-51
2024/01/24 04:24:57;;;;;;;1.10;0.90;;;;;;;;;;5062532;28;20199;-51
2024/01/24 04:27:23;;;;;;;0.80;0.80;;;;;;;;;;5062680;28;20238;-51
2024/01/24 04:29:49;;;;;;;1.10;1.00;;;;;;;;;;5062412;28;20203;-51
2024/01/24 04:32:15;;;;;;;1.67;1.10;;;;;;;;;;5060882;28;20689;-51
2024/01/24 04:34:41;;;;;;;1.50;0.77;;;;;;;;;;5062727;28;20199;-51
2024/01/24 04:37:07;;;;;;;1.00;0.90;;;;;;;;;;5060649;28;20195;-51
2024/01/24 04:39:33;;;;;;;2.33;1.00;;;;;;;;;;5062447;28;21003;-52
2024/01/24 04:42:00;;;;;;;2.53;0.93;;;;;;;;;;5062623;28;20278;-51
2024/01/24 04:44:26;;;;;;;1.63;0.90;;;;;;;;;;5060800;28;20207;-51
2024/01/24 04:46:52;;;;;;;1.17;1.00;;;;;;;;;;5060487;28;20242;-51
2024/01/24 04:49:18;;;;;;;3.43;1.33;;;;;;;;;;5060617;28;20211;-51
2024/01/24 04:51:44;;;;;;;2.40;1.20;;;;;;;;;;5060480;28;20199;-51
2024/01/24 04:54:10;;;;;;;3.00;1.50;;;;;;;;;;5060402;28;20222;-51
2024/01/24 04:56:38;;;;;;;4.00;1.50;;;;;;;;;;5061490;28;20645;-51
2024/01/24 04:59:05;;;;;;;4.17;1.50;;;;;;;;;;5062185;28;20249;-51
2024/01/24 05:01:31;;;;;;;6.47;2.00;;;;;;;;;;5060282;28;20682;-52
2024/01/24 05:03:58;;;;;;;3.67;1.67;;;;;;;;;;5060167;28;20199;-51
2024/01/24 05:06:24;;;;;;;5.20;1.90;;;;;;;;;;5061918;28;21124;-51
2024/01/24 05:08:51;;;;;;;4.57;1.90;;;;;;;;;;5061724;28;20247;-51
2024/01/24 05:11:17;;;;;;;5.87;1.90;;;;;;;;;;5060252;28;20198;-51
2024/01/24 05:13:43;;;;;;;3.67;1.53;;;;;;;;;;5059932;28;20223;-51
2024/01/24 05:16:10;;;;;;;4.57;2.10;;;;;;;;;;5060235;28;20203;-50
2024/01/24 05:18:36;;;;;;;6.50;1.63;;;;;;;;;;5059799;28;20222;-51
2024/01/24 05:21:03;;;;;;;4.20;1.43;;;;;;;;;;5058554;28;20283;-50
2024/01/24 05:23:28;;;;;;;2.87;1.43;;;;;;;;;;5063355;28;20191;-50
2024/01/24 05:25:54;;;;;;;5.27;1.80;;;;;;;;;;5060069;28;20562;-50
2024/01/24 05:28:20;;;;;;;3.60;1.57;;;;;;;;;;5059930;28;20264;-51
2024/01/24 05:30:46;;;;;;;4.93;1.70;;;;;;;;;;5059826;28;20238;-48
2024/01/24 05:33:14;;;;;;;7.97;2.20;;;;;;;;;;5061660;28;20598;-51
2024/01/24 05:35:40;;;;;;;4.20;1.43;;;;;;;;;;5061505;28;20191;-51
2024/01/24 05:38:06;;;;;;;4.83;2.20;;;;;;;;;;5061491;28;20258;-51
2024/01/24 05:40:32;;;;;;;7.43;2.30;;;;;;;;;;5058319;28;20195;-50
2024/01/24 05:42:59;;;;;;;8.37;2.37;;;;;;;;;;5059207;28;20203;-50
2024/01/24 05:45:25;;;;;;;6.27;2.17;;;;;;;;;;5059484;28;20310;-50
2024/01/24 05:47:51;;;;;;;4.90;1.83;;;;;;;;;;5060554;28;20697;-51
2024/01/24 05:50:19;;;;;;;7.77;2.20;;;;;;;;;;5059497;28;20231;-50
2024/01/24 05:52:45;;;;;;;9.47;2.30;;;;;;;;;;5061166;28;20211;-51
2024/01/24 05:55:11;;;;;;;4.63;1.90;;;;;;;;;;5059413;28;20687;-51
2024/01/24 05:57:40;;;;;;;7.03;2.57;;;;;;;;;;5061006;28;20582;-51
2024/01/24 06:00:08;;;;;;;9.13;2.63;;;;;;;;;;5059263;28;20187;-50
2024/01/24 06:02:34;;;;;;;11.73;2.70;;;;;;;;;;5059197;28;20195;-50
2024/01/24 06:05:00;;;;;;;7.47;2.40;;;;;;;;;;5059277;28;20210;-50
2024/01/24 06:07:28;;;;;;;8.17;2.50;;;;;;;;;;5059201;28;20306;-50
2024/01/24 06:09:54;;;;;;;10.57;2.73;;;;;;;;;;5058814;28;20203;-50
2024/01/24 06:12:20;;;;;;;10.67;2.93;;;;;;;;;;5058709;28;20254;-50
2024/01/24 06:14:46;;;;;;;11.67;3.00;;;;;;;;;;5059621;28;20195;-51
2024/01/24 06:17:12;;;;;;;9.07;3.13;;;;;;;;;;5057532;28;20208;-50
2024/01/24 06:19:37;;;;;;;10.77;3.00;;;;;;;;;;5057544;28;20920;-49
2024/01/24 06:22:04;;;;;;;8.77;2.60;;;;;;;;;;5057927;28;20252;-50
2024/01/24 06:24:31;;;;;;;10.27;3.37;;;;;;;;;;5058086;28;20201;-50
2024/01/24 06:26:57;;;;;;;9.67;3.13;;;;;;;;;;5058040;28;20694;-50
2024/01/24 06:29:23;;;;;;;12.60;2.87;;;;;;;;;;5057826;28;20294;-50
2024/01/24 06:31:50;;;;;;;13.33;2.70;;;;;;;;;;5058529;28;20619;-50
2024/01/24 06:34:16;;;;;;;10.60;2.77;;;;;;;;;;5057840;28;20195;-49
2024/01/24 06:36:42;;;;;;;11.73;3.17;;;;;;;;;;5057659;28;20680;-50
2024/01/24 06:39:09;;;;;;;10.57;3.20;;;;;;;;;;5057802;28;20184;-50
2024/01/24 06:41:37;;;;;;;12.60;3.40;;;;;;;;;;5057799;28;20195;-50
2024/01/24 06:44:05;;;;;;;10.50;3.40;;;;;;;;;;5059372;28;20224;-50
2024/01/24 06:46:31;;;;;;;8.80;2.63;;;;;;;;;;5059536;28;20568;-51
2024/01/24 06:48:57;;;;;;;7.53;2.97;;;;;;;;;;5057616;28;20218;-50
2024/01/24 06:51:23;;;;;;;11.20;3.70;;;;;;;;;;5059295;28;20219;-50
2024/01/24 06:53:49;;;;;;;10.80;3.67;;;;;;;;;;5057483;28;20692;-50
2024/01/24 06:56:15;;;;;;;16.23;3.80;;;;;;;;;;5057718;28;20199;-50
2024/01/24 06:58:42;;;;;;;14.10;3.60;;;;;;;;;;5057632;28;20203;-50
2024/01/24 07:01:08;;;;;;;15.60;4.20;;;;;;;;;;5057949;28;20202;-50
2024/01/24 07:03:34;;;;;;;13.27;4.33;;;;;;;;;;5059496;28;20801;-51
2024/01/24 07:06:04;;;;;;;18.03;4.70;;;;;;;;;;5057349;28;20257;-51
2024/01/24 07:08:30;;;;;;;17.03;4.07;;;;;;;;;;5057522;28;20613;-50
2024/01/24 07:10:56;;;;;;;13.17;3.77;;;;;;;;;;5057431;28;20224;-50
2024/01/24 07:13:22;;;;;;;16.53;4.30;;;;;;;;;;5024350;28;1011214;-50
2024/01/24 07:15:50;;;;;;;15.67;4.43;;;;;;;;;;5059967;28;20222;-51
2024/01/24 07:18:16;;;;;;;20.27;5.10;;;;;;;;;;5058223;28;20231;-50
2024/01/24 07:20:43;;;;;;;17.47;4.50;;;;;;;;;;5059922;28;20195;-51
2024/01/24 07:23:09;;;;;;;18.97;4.50;;;;;;;;;;5058069;28;20180;-51
2024/01/24 07:25:35;;;;;;;19.70;4.10;;;;;;;;;;5059943;28;20230;-50
2024/01/24 07:28:01;;;;;;;17.80;5.07;;;;;;;;;;5058192;28;20207;-51
2024/01/24 07:30:27;;;;;;;15.27;4.73;;;;;;;;;;5058322;28;20195;-50
2024/01/24 07:32:55;;;;;;;17.13;4.37;;;;;;;;;;5061525;28;20245;-51
2024/01/24 07:35:21;;;;;;;14.50;4.20;;;;;;;;;;5061537;28;20208;-51
2024/01/24 07:37:47;;;;;;;16.37;4.43;;;;;;;;;;5059266;28;20215;-51
2024/01/24 07:40:14;;;;;;;16.63;4.30;;;;;;;;;;5061436;28;20619;-51
2024/01/24 07:42:41;;;;;;;15.30;4.60;;;;;;;;;;5058185;28;20221;-51
2024/01/24 07:45:09;;;;;;;20.33;4.70;;;;;;;;;;5059314;28;20200;-50
2024/01/24 07:47:35;;;;;;;14.80;4.53;;;;;;;;;;5057618;28;20594;-50
2024/01/24 07:50:03;;;;;;;15.57;4.13;;;;;;;;;;5059562;28;20632;-50
2024/01/24 07:52:29;;;;;;;14.60;4.50;;;;;;;;;;5057819;28;20735;-50
2024/01/24 07:54:55;;;;;;;20.33;4.97;;;;;;;;;;5062031;28;20199;-50
2024/01/24 07:57:21;;;;;;;14.17;4.47;;;;;;;;;;5063012;28;20245;-50
2024/01/24 07:59:47;;;;;;;11.93;3.80;;;;;;;;;;5059728;28;20231;-50
2024/01/24 08:02:13;;;;;;;15.90;4.87;;;;;;;;;;5059762;28;20200;-49
2024/01/24 08:04:39;;;;;;;19.20;5.00;;;;;;;;;;5059718;28;20630;-50
2024/01/24 08:07:07;;;;;;;15.27;4.67;;;;;;;;;;5061018;28;20224;-50
2024/01/24 08:09:34;;;;;;;19.83;4.60;;;;;;;;;;5060999;28;20207;-50
2024/01/24 08:12:00;;;;;;;18.33;5.13;;;;;;;;;;5062510;28;20268;-51
2024/01/24 08:14:26;;;;;;;15.43;4.50;;;;;;;;;;5062950;28;20665;-50
2024/01/24 08:17:01;;;;;;;18.87;5.03;;;;;;;;;;5064080;28;20576;-50
2024/01/24 08:19:28;;;;;;;19.80;4.73;;;;;;;;;;5063111;28;20203;-50
2024/01/24 08:21:54;;;;;;;20.03;5.00;;;;;;;;;;5064331;28;20191;-50
2024/01/24 08:24:21;;;;;;;16.37;5.47;;;;;;;;;;5064569;28;20249;-51
2024/01/24 08:26:47;;;;;;;22.17;5.43;;;;;;;;;;5061272;28;20680;-52
2024/01/24 08:29:13;;;;;;;14.53;4.80;;;;;;;;;;5062930;28;20199;-53
2024/01/24 08:31:39;;;;;;;14.27;4.87;;;;;;;;;;5062669;28;20613;-54
2024/01/24 08:34:05;;;;;;;22.93;5.47;;;;;;;;;;5064327;28;20196;-55
2024/01/24 08:36:31;;;;;;;23.57;5.40;;;;;;;;;;5066038;28;20683;-54
2024/01/24 08:38:57;;;;;;;14.53;4.83;;;;;;;;;;5067529;28;20207;-55
2024/01/24 08:41:25;;;;;;;17.30;4.93;;;;;;;;;;5065388;28;20679;-54
2024/01/24 08:43:52;;;;;;;16.33;4.83;;;;;;;;;;5074216;28;20575;-55
2024/01/24 08:46:18;;;;;;;15.33;4.73;;;;;;;;;;5073150;28;20237;-54
2024/01/24 08:48:44;;;;;;;13.77;4.50;;;;;;;;;;5074250;28;20610;-54
2024/01/24 08:51:10;;;;;;;16.23;4.33;;;;;;;;;;5073763;28;20569;-54
2024/01/24 08:53:37;;;;;;;16.50;4.53;;;;;;;;;;5074074;28;20196;-54
2024/01/24 08:56:03;;;;;;;18.20;4.67;;;;;;;;;;5073663;28;20202;-54
2024/01/24 08:58:31;;;;;;;17.93;5.03;;;;;;;;;;5073627;28;20280;-53
2024/01/24 09:00:56;;;;;;;17.73;5.23;;;;;;;;;;5073805;28;20662;-54
2024/01/24 09:03:22;;;;;;;19.87;4.80;;;;;;;;;;5073939;28;20195;-53
2024/01/24 09:05:51;;;;;;;17.13;5.17;;;;;;;;;;5073747;28;20220;-54
2024/01/24 09:08:17;;;;;;;20.87;5.17;;;;;;;;;;5073735;28;20289;-54
2024/01/24 09:10:43;;;;;;;20.43;4.47;;;;;;;;;;5073382;28;20199;-54
2024/01/24 09:13:09;;;;;;;20.00;5.07;;;;;;;;;;5073763;28;20359;-54
2024/01/24 09:15:36;;;;;;;18.50;5.07;;;;;;;;;;5073560;28;20294;-54
2024/01/24 09:18:02;;;;;;;21.30;5.00;;;;;;;;;;5073223;28;20238;-54
2024/01/24 09:20:28;;;;;;;16.23;4.70;;;;;;;;;;5073545;28;20681;-54
2024/01/24 09:22:54;;;;;;;14.90;4.33;;;;;;;;;;5071963;28;20199;-54
2024/01/24 09:25:21;;;;;;;17.93;5.77;;;;;;;;;;5073494;28;20191;-54
2024/01/24 09:27:47;;;;;;;18.97;5.07;;;;;;;;;;5073149;28;20254;-55
2024/01/24 09:30:13;;;;;;;17.07;4.80;;;;;;;;;;5073314;28;20192;-54
2024/01/24 09:32:41;;;;;;;16.77;4.33;;;;;;;;;;5073284;28;20195;-54
2024/01/24 09:35:07;;;;;;;16.57;4.90;;;;;;;;;;5072823;28;20724;-54
2024/01/24 09:37:33;;;;;;;18.50;5.07;;;;;;;;;;5073268;28;20191;-54
2024/01/24 09:39:59;;;;;;;18.77;4.60;;;;;;;;;;5073061;28;20207;-54
2024/01/24 09:42:26;;;;;;;18.77;5.73;;;;;;;;;;5072734;28;20215;-54
2024/01/24 09:44:52;;;;;;;15.43;4.07;;;;;;;;;;5072833;28;20302;-54
2024/01/24 09:47:21;;;;;;;14.60;4.27;;;;;;;;;;5072627;28;20584;-54
2024/01/24 09:49:49;;;;;;;20.13;4.70;;;;;;;;;;5073012;28;20199;-54
2024/01/24 09:52:17;;;;;;;13.80;4.40;;;;;;;;;;5072827;28;20302;-54
2024/01/24 09:54:44;;;;;;;18.50;5.23;;;;;;;;;;5073115;28;20207;-54
2024/01/24 09:57:12;;;;;;;18.57;4.93;;;;;;;;;;5072732;28;20663;-54
2024/01/24 09:59:38;;;;;;;20.80;5.20;;;;;;;;;;5072445;28;20183;-54
2024/01/24 10:02:06;;;;;;;14.87;4.73;;;;;;;;;;5072555;28;20196;-54
2024/01/24 10:04:37;;;;;;;15.83;5.10;;;;;;;;;;5072627;28;20682;-53
2024/01/24 10:07:04;;;;;;;20.00;5.17;;;;;;;;;;5072455;28;20231;-54
2024/01/24 10:09:30;;;;;;;18.83;5.60;;;;;;;;;;5072668;28;20207;-53
2024/01/24 10:11:56;;;;;;;16.83;5.23;;;;;;;;;;5072101;28;20218;-53
2024/01/24 10:14:23;;;;;;;17.57;4.57;;;;;;;;;;5072315;28;20713;-54
2024/01/24 10:16:50;;;;;;;25.50;5.87;;;;;;;;;;5072608;28;20273;-54
2024/01/24 10:19:17;;;;;;;18.50;5.20;;;;;;;;;;5072325;28;20199;-53
2024/01/24 10:21:43;;;;;;;17.00;4.83;;;;;;;;;;5072496;28;20661;-54
2024/01/24 10:24:11;;;;;;;19.70;5.10;;;;;;;;;;5072012;28;20195;-53
2024/01/24 10:26:37;;;;;;;16.97;4.77;;;;;;;;;;5072307;28;20315;-54
2024/01/24 10:29:04;;;;;;;17.50;5.23;;;;;;;;;;5072148;28;20203;-54
2024/01/24 10:31:30;;;;;;;20.60;5.77;;;;;;;;;;5071669;28;20225;-53
2024/01/24 10:33:57;;;;;;;22.50;5.70;;;;;;;;;;5071239;28;20199;-54
2024/01/24 10:36:23;;;;;;;22.03;5.13;;;;;;;;;;5071808;28;20203;-54
2024/01/24 10:38:49;;;;;;;20.13;5.20;;;;;;;;;;5072080;28;20199;-53
2024/01/24 10:41:17;;;;;;;15.93;5.10;;;;;;;;;;5072070;28;20260;-54
2024/01/24 10:43:45;;;;;;;19.80;4.90;;;;;;;;;;5069462;28;20210;-54
2024/01/24 10:46:11;;;;;;;20.20;4.83;;;;;;;;;;5067741;28;20284;-54
2024/01/24 10:48:38;;;;;;;20.03;4.77;;;;;;;;;;5072073;28;20195;-54
2024/01/24 10:51:04;;;;;;;16.73;4.57;;;;;;;;;;5071993;28;20206;-54
2024/01/24 10:53:31;;;;;;;20.63;5.53;;;;;;;;;;5072226;28;20234;-54
2024/01/24 10:55:57;;;;;;;18.57;5.33;;;;;;;;;;5072045;28;20191;-54
2024/01/24 10:58:28;;;;;;;19.07;5.30;;;;;;;;;;5070209;28;20211;-54
2024/01/24 11:00:54;;;;;;;13.60;4.43;;;;;;;;;;5071891;28;20203;-54
2024/01/24 11:03:20;;;;;;;17.53;4.73;;;;;;;;;;5071696;28;20239;-54
2024/01/24 11:05:48;;;;;;;15.57;4.27;;;;;;;;;;5071746;28;20203;-54
2024/01/24 11:08:18;;;;;;;17.13;4.73;;;;;;;;;;5071577;28;20321;-53
2024/01/24 11:10:45;;;;;;;15.60;4.20;;;;;;;;;;5071860;28;20570;-54
2024/01/24 11:13:11;;;;;;;15.77;4.83;;;;;;;;;;5071458;28;20240;-54
2024/01/24 11:15:40;;;;;;;18.43;4.77;;;;;;;;;;5071791;28;20199;-54
2024/01/24 11:18:21;;;;;;;21.07;5.10;;;;;;;;;;5071460;28;20255;-54
2024/01/24 11:20:48;;;;;;;18.13;4.70;;;;;;;;;;5071527;28;20565;-54
2024/01/24 11:23:34;;;;;;;21.03;4.63;;;;;;;;;;5071629;28;20199;-54
2024/01/24 11:26:00;;;;;;;14.90;4.30;;;;;;;;;;5071560;28;20233;-54
2024/01/24 11:28:26;;;;;;;19.50;4.43;;;;;;;;;;5071717;28;20203;-54
2024/01/24 11:30:53;;;;;;;11.73;3.87;;;;;;;;;;5071345;28;20276;-53
2024/01/24 11:33:19;;;;;;;20.13;5.13;;;;;;;;;;5071671;28;20204;-53
2024/01/24 11:35:46;;;;;;;18.17;5.33;;;;;;;;;;5071951;28;20205;-53
2024/01/24 11:38:26;;;;;;;14.13;4.80;;;;;;;;;;5071601;28;20213;-53
2024/01/24 11:40:53;;;;;;;19.57;5.23;;;;;;;;;;5071488;28;20245;-53
2024/01/24 11:43:23;;;;;;;15.87;4.70;;;;;;;;;;5071743;28;20694;-53
2024/01/24 11:45:51;;;;;;;16.13;4.87;;;;;;;;;;5071717;28;20245;-53
2024/01/24 11:48:19;;;;;;;17.23;4.67;;;;;;;;;;5075431;28;20291;-52
2024/01/24 11:50:46;;;;;;;21.93;5.47;;;;;;;;;;5075534;28;20200;-52
2024/01/24 11:53:12;;;;;;;14.97;4.30;;;;;;;;;;5075303;28;20278;-52
2024/01/24 11:55:38;;;;;;;18.33;5.33;;;;;;;;;;5075518;28;20199;-52
2024/01/24 11:58:05;;;;;;;16.77;4.67;;;;;;;;;;5075312;28;20196;-52
2024/01/24 12:00:31;;;;;;;15.97;4.53;;;;;;;;;;5075399;28;20196;-52
2024/01/24 12:02:57;;;;;;;15.10;4.63;;;;;;;;;;5075392;28;20206;-53
2024/01/24 12:05:24;;;;;;;14.97;4.47;;;;;;;;;;5075244;28;20195;-52
2024/01/24 12:07:51;;;;;;;15.73;4.50;;;;;;;;;;5074862;28;20788;-52
2024/01/24 12:10:17;;;;;;;12.00;4.20;;;;;;;;;;5075111;28;20191;-53
2024/01/24 12:12:44;;;;;;;16.73;4.50;;;;;;;;;;5075092;28;20352;-52
2024/01/24 12:15:10;;;;;;;16.83;4.70;;;;;;;;;;5075044;28;20222;-52
2024/01/24 12:17:38;;;;;;;14.37;4.50;;;;;;;;;;5075059;28;20212;-52
2024/01/24 12:20:05;;;;;;;18.33;4.60;;;;;;;;;;5074992;28;20200;-52
2024/01/24 12:22:33;;;;;;;15.37;4.03;;;;;;;;;;5075035;28;20211;-52
2024/01/24 12:25:00;;;;;;;18.03;4.20;;;;;;;;;;5074944;28;20257;-52
2024/01/24 12:27:26;;;;;;;13.93;4.80;;;;;;;;;;5074758;28;20227;-53
2024/01/24 12:29:53;;;;;;;12.47;4.50;;;;;;;;;;5074578;28;20207;-52
2024/01/24 12:32:21;;;;;;;14.50;4.57;;;;;;;;;;5074318;28;20246;-53
2024/01/24 12:34:47;;;;;;;16.87;5.00;;;;;;;;;;5074809;28;20195;-52
2024/01/24 12:37:13;;;;;;;15.37;4.27;;;;;;;;;;5074625;28;20245;-53
2024/01/24 12:39:42;;;;;;;12.13;4.43;;;;;;;;;;5074706;28;20199;-52
2024/01/24 12:42:08;;;;;;;14.80;4.37;;;;;;;;;;5074528;28;20204;-53
2024/01/24 12:44:35;;;;;;;18.87;4.87;;;;;;;;;;5074636;28;20275;-53
2024/01/24 12:47:01;;;;;;;20.10;5.33;;;;;;;;;;5074381;28;20231;-53
2024/01/24 12:49:27;;;;;;;15.43;4.27;;;;;;;;;;5074605;28;20195;-53
2024/01/24 12:51:53;;;;;;;17.63;4.50;;;;;;;;;;5074353;28;20203;-53
2024/01/24 12:54:19;;;;;;;15.23;4.47;;;;;;;;;;5074299;28;20282;-53
2024/01/24 12:56:47;;;;;;;19.17;4.47;;;;;;;;;;5074393;28;20676;-53
2024/01/24 12:59:13;;;;;;;19.80;4.63;;;;;;;;;;5074201;28;20282;-53
2024/01/24 13:01:39;;;;;;;18.33;4.97;;;;;;;;;;5074314;28;20250;-53
2024/01/24 13:04:05;;;;;;;14.10;4.53;;;;;;;;;;5074145;28;20221;-53
2024/01/24 13:06:31;;;;;;;17.33;4.23;;;;;;;;;;5074033;28;20235;-50
2024/01/24 13:08:57;;;;;;;17.53;4.80;;;;;;;;;;5068485;28;20214;-52
2024/01/24 13:11:23;;;;;;;16.67;4.87;;;;;;;;;;5072687;28;20230;-52
2024/01/24 13:13:51;;;;;;;16.47;4.57;;;;;;;;;;5073525;28;20251;-52
2024/01/24 13:16:17;;;;;;;13.07;3.70;;;;;;;;;;5073418;28;20211;-52
2024/01/24 13:18:43;;;;;;;17.63;4.70;;;;;;;;;;5073667;28;20216;-52
2024/01/24 13:21:09;;;;;;;21.30;5.03;;;;;;;;;;5073517;28;20601;-53
2024/01/24 13:23:35;;;;;;;14.93;4.87;;;;;;;;;;5071308;28;20227;-50
2024/01/24 13:26:01;;;;;;;20.60;5.07;;;;;;;;;;5071928;28;20685;-50
2024/01/24 13:28:27;;;;;;;13.03;4.00;;;;;;;;;;5073642;28;20195;-51
2024/01/24 13:30:54;;;;;;;18.13;4.37;;;;;;;;;;5073693;28;20219;-53
2024/01/24 13:33:20;;;;;;;18.60;4.67;;;;;;;;;;5073368;28;20741;-52
2024/01/24 13:35:46;;;;;;;15.43;5.37;;;;;;;;;;5073641;28;20199;-50
2024/01/24 13:38:13;;;;;;;13.83;3.87;;;;;;;;;;5073409;28;20196;-51
2024/01/24 13:40:39;;;;;;;14.97;4.33;;;;;;;;;;5073523;28;20234;-50
2024/01/24 13:43:05;;;;;;;15.63;4.87;;;;;;;;;;5073434;28;20215;-49
2024/01/24 13:45:30;;;;;;;17.17;4.67;;;;;;;;;;5073448;28;20659;-50
2024/01/24 13:47:58;;;;;;;18.50;4.27;;;;;;;;;;5073110;28;20263;-52
2024/01/24 13:50:24;;;;;;;20.80;5.20;;;;;;;;;;5073184;28;20260;-50
2024/01/24 13:52:50;;;;;;;13.97;4.13;;;;;;;;;;5073173;28;20192;-50
2024/01/24 13:55:16;;;;;;;15.83;4.43;;;;;;;;;;5073096;28;20215;-49
2024/01/24 13:57:43;;;;;;;17.17;4.67;;;;;;;;;;5073174;28;20284;-50
2024/01/24 14:00:11;;;;;;;16.07;4.30;;;;;;;;;;5073017;28;20196;-49
2024/01/24 14:02:37;;;;;;;17.87;4.60;;;;;;;;;;5073090;28;20664;-50
2024/01/24 14:05:04;;;;;;;16.17;4.03;;;;;;;;;;5073055;28;20737;-50
2024/01/24 14:07:30;;;;;;;18.23;4.53;;;;;;;;;;5072865;28;20238;-50
2024/01/24 14:09:56;;;;;;;18.33;4.83;;;;;;;;;;5072517;28;20206;-50
2024/01/24 14:12:22;;;;;;;13.83;4.37;;;;;;;;;;5072535;28;20271;-53
2024/01/24 14:14:48;;;;;;;13.43;4.57;;;;;;;;;;5072906;28;20226;-50
2024/01/24 14:17:15;;;;;;;16.00;4.63;;;;;;;;;;5072561;28;20409;-51
2024/01/24 14:19:41;;;;;;;16.23;5.40;;;;;;;;;;5072769;28;20187;-49
2024/01/24 14:22:08;;;;;;;13.30;4.73;;;;;;;;;;5072515;28;20190;-51
2024/01/24 14:24:34;;;;;;;15.73;4.90;;;;;;;;;;5072784;28;20200;-49
2024/01/24 14:27:00;;;;;;;20.27;4.53;;;;;;;;;;5072612;28;20224;-49
2024/01/24 14:29:26;;;;;;;13.13;4.27;;;;;;;;;;5072546;28;20287;-50